Portada
METAR-TAF:

METAR-TAF

Aeroports :

Bordj Badji Mokhtar, Algèria

latitud: 21-22-30N, longitud: 000-55-26E, altitud: 396 m

METAR: manca

Hora: 10:43 (09:43 UTC)

Pronòstic

L'informe es va fer fa 1 hora i 43 minuts, a les 08:00 UTC
Pronòstic vàlid del 17 a les 09 UTC al 17 a les 18 UTC
Vent 14 kt del Sud-Oest
Visibilitat 10 km o més
sense núvols per sota de 1500 mi sense presència de cumulonimbus.

TAF: DATM 170800Z 1709/1718 22014KT CAVOK

Observacions i pronòstics meteorològics de més de 4000 aeroports (METAR i TAF).

Les estacions disponibles són els punts grocs i vermells al mapa.

Posi el ratolí al punt desitjat per veure el nom de l'estació.

Feu clic per veure les observacions i els pronòstics meteorològics.

Per canviar el mapa: feu clic els botons verds amb una creu de color negre per apropar; al botó verd amb un guió per allunyar la imatge; o en les fletxes verdes per a mapes adjacents.


METAR-TAF: